Irmo, SC (29063)

3:40 PM EDT on May 06, 2015 (GMT -0400)
Ascot | | Change Station
CLOSE
Current Station
Personal Weather Station
Location: Irmo, SC
Elevation: 328 ft
Nearby Weather Stations

Elev 328 ft 34.14 °N, 81.17 °W | Updated 22 seconds ago

Partly Cloudy
Partly Cloudy
83.7 °F
Feels Like 83 °F
N
2.6
Wind Variable Wind from ESE
Gusts 4.0 mph

Today
High -- | Low -- °F
--% Chance of Precip.
Yesterday
High -- | Low -- °F
Precip. -- in
6:30 AM 8:12 PM
Waning Gibbous, 93% visible
Pressure 30.13 in
Visibility 10.0 miles
Clouds Few 5500 ft
Scattered Clouds 18000 ft
Mostly Cloudy 25000 ft
Heat Index 83 °F
Dew Point 58 °F
Humidity 42%
Rainfall 0.00 in
Snow Depth Not available.
UV 5 out of 12
Pollen 8.30 out of 12
Air Quality Not available.
Flu Activity Local Activity
METAR KCAE 061856Z 07009KT 10SM FEW055 SCT180 BKN250 28/09 A3013 RMK AO2 SLP201 T02830094

More Conditions Fewer Conditions

Pressure 30.13 in
Visibility 10.0 miles
Clouds Few 5500 ft
Scattered Clouds 18000 ft
Mostly Cloudy 25000 ft
Heat Index 83 °F
Dew Point 58 °F
Humidity 42%
Rainfall 0.00 in
Snow Depth Not available.
UV 5 out of 12
Pollen 8.30 out of 12
Air Quality Not available.
Flu Activity Local Activity
METAR KCAE 061856Z 07009KT 10SM FEW055 SCT180 BKN250 28/09 A3013 RMK AO2 SLP201 T02830094

More Conditions Fewer Conditions

The National Hurricane Center is watching an area of disturbed weather just east of Florida for development. There is a 60% chance of intensification over the next 2 days and this system could become the first named tropical storm of the year. Many atmospheric models take the system close to the coasts of South Carolina and North Carolina later this week, but will have to wait for more information to be more confident in its track.

10-Day Weather Forecast

Almanac

Astronomy

May. 06, 2015 Rise Set
Actual Time
Civil Twilight
Nautical Twilight
Astronomical Twilight
Moon
Length of Visible Light
Length of Day
Tomorrow will be .
, % of the Moon is Illuminated

Today's Extremes

State Highs State Lows

Community

WunderPhotos

Upload Photos

1,819,003 photos uploaded!

WunderBlogs® & News

Nearby

Air Quality

  Air Quality AQ Index Pollutant
Not available.

Snow Depth

Station Depth Elevation

Earthquake Activity

City Distance Mag. Time & Date
Minimum magnitude displayed is 2.5.

Coastal Water Temperatures

Place Temperature

Stations

Nearby Weather Stations

Station Location Temp. Windchill Dew Point Humidity Wind Precip. Elev Updated Type